createdAt,value
2018-06-05T00:00:59.709Z,17.80
2018-06-05T00:03:27.218Z,17.80
2018-06-05T00:05:54.774Z,17.80
2018-06-05T00:08:22.350Z,17.70
2018-06-05T00:10:49.905Z,17.70
2018-06-05T00:13:17.427Z,17.70
2018-06-05T00:15:44.951Z,17.70
2018-06-05T00:18:12.536Z,17.60
2018-06-05T00:20:40.060Z,17.60
2018-06-05T00:23:07.565Z,17.60
2018-06-05T00:25:35.089Z,17.60
2018-06-05T00:28:02.643Z,17.60
2018-06-05T00:30:30.152Z,17.60
2018-06-05T00:32:57.677Z,17.60
2018-06-05T00:35:25.253Z,17.50
2018-06-05T00:37:52.765Z,17.50
2018-06-05T00:40:20.300Z,17.50
2018-06-05T00:42:47.810Z,17.40
2018-06-05T00:45:15.332Z,17.40
2018-06-05T00:47:42.863Z,17.40
2018-06-05T00:50:10.370Z,17.40
2018-06-05T00:52:37.906Z,17.30
2018-06-05T00:55:05.422Z,17.30
2018-06-05T00:57:32.925Z,17.30
2018-06-05T01:00:00.466Z,17.30
2018-06-05T01:02:27.996Z,17.40
2018-06-05T01:04:55.514Z,17.40
2018-06-05T01:07:23.052Z,17.40
2018-06-05T01:09:50.593Z,17.40
2018-06-05T01:12:18.154Z,17.40
2018-06-05T01:14:45.689Z,17.40
2018-06-05T01:17:13.224Z,17.40
2018-06-05T01:19:40.781Z,17.40
2018-06-05T01:22:08.333Z,17.40
2018-06-05T01:24:35.987Z,17.40
2018-06-05T01:27:03.552Z,17.40
2018-06-05T01:29:31.056Z,17.40
2018-06-05T01:31:58.585Z,17.40
2018-06-05T01:34:26.111Z,17.40
2018-06-05T01:36:53.615Z,17.50
2018-06-05T01:39:21.138Z,17.50
2018-06-05T01:41:48.673Z,17.50
2018-06-05T01:44:16.192Z,17.60
2018-06-05T01:46:43.785Z,17.60
2018-06-05T01:49:11.282Z,17.60
2018-06-05T01:51:38.789Z,17.60
2018-06-05T01:54:06.303Z,17.60
2018-06-05T01:56:33.827Z,17.60
2018-06-05T01:59:01.389Z,17.60
2018-06-05T02:01:28.929Z,17.60
2018-06-05T02:03:56.457Z,17.60
2018-06-05T02:06:23.957Z,17.50
2018-06-05T02:08:51.484Z,17.60
2018-06-05T02:11:19.011Z,17.60
2018-06-05T02:13:46.535Z,17.70
2018-06-05T02:16:14.065Z,17.70
2018-06-05T02:18:41.609Z,17.90
2018-06-05T02:21:10.121Z,17.90
2018-06-05T02:23:37.722Z,18.00
2018-06-05T02:26:05.280Z,18.10
2018-06-05T02:28:32.789Z,18.10
2018-06-05T02:31:00.363Z,17.90
2018-06-05T02:33:27.872Z,17.90
2018-06-05T02:35:55.451Z,18.00
2018-06-05T02:38:22.947Z,18.00
2018-06-05T02:40:52.147Z,18.10
2018-06-05T02:43:19.721Z,18.20
2018-06-05T02:45:47.284Z,18.40
2018-06-05T02:48:14.801Z,18.50
2018-06-05T02:50:42.323Z,18.50
2018-06-05T02:53:09.893Z,18.50
2018-06-05T02:55:37.455Z,18.40
2018-06-05T02:58:05.003Z,18.40
2018-06-05T03:00:32.504Z,18.50
2018-06-05T03:03:00.039Z,18.50
2018-06-05T03:05:27.581Z,18.50
2018-06-05T03:07:55.130Z,18.60
2018-06-05T03:10:22.669Z,18.70
2018-06-05T03:12:50.192Z,18.80
2018-06-05T03:15:17.719Z,18.80
2018-06-05T03:17:45.260Z,18.80
2018-06-05T03:20:12.774Z,18.90
2018-06-05T03:22:40.318Z,18.90
2018-06-05T03:25:07.848Z,19.00
2018-06-05T03:27:35.348Z,18.90
2018-06-05T03:30:02.991Z,19.00
2018-06-05T03:32:30.532Z,19.00
2018-06-05T03:34:58.027Z,19.10
2018-06-05T03:37:25.611Z,19.10
2018-06-05T03:39:53.170Z,19.10
2018-06-05T03:42:20.668Z,19.10
2018-06-05T03:44:48.188Z,19.10
2018-06-05T03:47:15.820Z,19.20
2018-06-05T03:49:43.328Z,19.20
2018-06-05T03:52:10.926Z,19.10
2018-06-05T03:54:38.460Z,19.10
2018-06-05T03:57:06.194Z,19.20
2018-06-05T03:59:33.779Z,19.20
2018-06-05T04:02:01.270Z,19.10
2018-06-05T04:04:28.818Z,19.10
2018-06-05T04:06:56.386Z,19.10
2018-06-05T04:09:23.909Z,19.10
2018-06-05T04:11:51.439Z,19.10
2018-06-05T04:14:18.987Z,19.10
2018-06-05T04:16:49.145Z,19.10
2018-06-05T04:19:17.127Z,19.10
2018-06-05T04:21:44.662Z,19.10
2018-06-05T04:24:12.630Z,19.20
2018-06-05T04:26:40.256Z,19.20
2018-06-05T04:29:07.823Z,19.20
2018-06-05T04:31:35.322Z,19.30
2018-06-05T04:34:02.898Z,19.30
2018-06-05T04:36:30.434Z,19.40
2018-06-05T04:38:57.955Z,19.40
2018-06-05T04:41:25.553Z,19.40
2018-06-05T04:43:53.460Z,19.40
2018-06-05T04:46:21.048Z,19.50
2018-06-05T04:48:48.588Z,19.60
2018-06-05T04:51:16.134Z,19.80
2018-06-05T04:53:43.636Z,19.70
2018-06-05T04:56:11.163Z,19.80
2018-06-05T04:58:38.757Z,19.80
2018-06-05T05:01:06.469Z,19.90
2018-06-05T05:03:33.991Z,19.80
2018-06-05T05:06:01.513Z,19.80
2018-06-05T05:08:29.069Z,19.90
2018-06-05T05:10:56.609Z,19.90
2018-06-05T05:13:24.169Z,20.00
2018-06-05T05:15:51.720Z,19.90
2018-06-05T05:18:19.249Z,19.80
2018-06-05T05:20:46.773Z,19.80
2018-06-05T05:23:14.318Z,19.70
2018-06-05T05:25:42.025Z,19.80
2018-06-05T05:28:09.581Z,19.80
2018-06-05T05:30:37.128Z,19.80
2018-06-05T05:33:04.697Z,19.80
2018-06-05T05:35:32.243Z,19.70
2018-06-05T05:37:59.775Z,19.80
2018-06-05T05:40:27.278Z,19.90
2018-06-05T05:42:54.827Z,19.90
2018-06-05T05:45:22.326Z,20.10
2018-06-05T05:47:49.914Z,20.20
2018-06-05T05:50:17.478Z,20.20
2018-06-05T05:52:44.970Z,20.30
2018-06-05T05:55:12.533Z,20.30
2018-06-05T05:57:40.065Z,20.30
2018-06-05T06:00:07.586Z,20.40
2018-06-05T06:02:35.129Z,20.40
2018-06-05T06:05:02.745Z,20.50
2018-06-05T06:07:30.252Z,20.50
2018-06-05T06:09:57.742Z,20.60
2018-06-05T06:12:25.291Z,20.60
2018-06-05T06:14:52.840Z,20.60
2018-06-05T06:17:20.338Z,20.60
2018-06-05T06:19:47.878Z,20.70
2018-06-05T06:22:15.395Z,20.80
2018-06-05T06:24:42.942Z,20.80
2018-06-05T06:27:10.491Z,20.80
2018-06-05T06:29:38.001Z,20.80
2018-06-05T06:32:05.684Z,20.80
2018-06-05T06:34:33.209Z,20.90
2018-06-05T06:37:00.740Z,20.90
2018-06-05T06:39:28.279Z,21.00
2018-06-05T06:41:55.833Z,21.10
2018-06-05T06:44:23.340Z,21.30
2018-06-05T06:46:50.946Z,21.40
2018-06-05T06:49:18.479Z,21.60
2018-06-05T06:51:46.020Z,21.70
2018-06-05T06:56:41.070Z,21.70
2018-06-05T06:59:08.663Z,21.60
2018-06-05T07:01:36.219Z,21.60
2018-06-05T07:04:03.768Z,21.60
2018-06-05T07:06:31.290Z,21.60
2018-06-05T07:08:58.815Z,21.60
2018-06-05T07:11:26.343Z,21.60
2018-06-05T07:13:53.866Z,21.70
2018-06-05T07:16:21.413Z,21.80
2018-06-05T07:18:48.970Z,21.90
2018-06-05T07:21:16.472Z,22.00
2018-06-05T07:23:43.971Z,22.10
2018-06-05T07:26:11.493Z,22.10
2018-06-05T07:28:39.017Z,22.10
2018-06-05T07:31:06.530Z,22.10
2018-06-05T07:33:34.064Z,22.10
2018-06-05T07:36:01.565Z,22.10
2018-06-05T07:38:29.096Z,22.10
2018-06-05T07:40:56.667Z,22.20
2018-06-05T07:43:24.204Z,22.20
2018-06-05T07:45:51.845Z,22.20
2018-06-05T07:48:19.393Z,22.20
2018-06-05T07:50:46.905Z,22.20
2018-06-05T07:53:14.467Z,22.20
2018-06-05T07:55:42.006Z,22.20
2018-06-05T07:58:09.537Z,22.30
2018-06-05T08:00:37.071Z,22.30
2018-06-05T08:03:04.669Z,22.40
2018-06-05T08:05:32.163Z,22.50
2018-06-05T08:07:59.683Z,22.60
2018-06-05T08:10:27.230Z,22.70
2018-06-05T08:12:54.761Z,22.80
2018-06-05T08:15:22.301Z,23.00
2018-06-05T08:17:49.846Z,23.20
2018-06-05T08:20:17.384Z,23.30
2018-06-05T08:22:56.617Z,23.30
2018-06-05T08:25:24.159Z,23.40
2018-06-05T08:27:51.675Z,23.40
2018-06-05T08:30:19.197Z,23.50
2018-06-05T08:32:46.762Z,23.50
2018-06-05T08:35:14.281Z,23.60
2018-06-05T08:37:41.943Z,23.70
2018-06-05T08:40:09.491Z,23.70
2018-06-05T08:42:36.990Z,23.80
2018-06-05T08:45:04.572Z,23.90
2018-06-05T08:47:32.137Z,24.00
2018-06-05T08:49:59.672Z,24.10
2018-06-05T08:52:27.186Z,24.20
2018-06-05T08:54:54.754Z,24.40
2018-06-05T08:57:22.291Z,24.50
2018-06-05T08:59:49.873Z,24.70
2018-06-05T09:02:17.398Z,24.90
2018-06-05T09:04:44.935Z,25.10
2018-06-05T09:07:12.568Z,25.20
2018-06-05T09:09:40.089Z,25.30
2018-06-05T09:12:07.610Z,25.40
2018-06-05T09:14:35.187Z,25.50
2018-06-05T09:17:02.768Z,25.50
2018-06-05T09:19:30.296Z,25.40
2018-06-05T09:21:57.818Z,25.50
2018-06-05T09:24:25.321Z,25.50
2018-06-05T09:26:52.863Z,25.70
2018-06-05T09:29:20.382Z,25.70
2018-06-05T09:31:47.896Z,25.90
2018-06-05T09:34:15.438Z,26.00
2018-06-05T09:36:43.013Z,26.20
2018-06-05T09:39:10.540Z,26.40
2018-06-05T09:41:38.066Z,26.40
2018-06-05T09:44:05.655Z,26.60
2018-06-05T09:46:33.195Z,26.70
2018-06-05T09:49:00.718Z,26.90
2018-06-05T09:51:28.259Z,27.00
2018-06-05T09:53:55.819Z,27.20
2018-06-05T09:56:23.345Z,27.50
2018-06-05T09:58:50.905Z,27.70
2018-06-05T10:01:18.449Z,28.10
2018-06-05T10:03:46.026Z,28.40
2018-06-05T10:06:13.538Z,28.70
2018-06-05T10:08:41.059Z,29.20
2018-06-05T10:11:08.606Z,29.50
2018-06-05T10:13:36.171Z,29.70
2018-06-05T10:16:03.766Z,29.80
2018-06-05T10:18:31.323Z,30.00
2018-06-05T10:20:58.856Z,30.10
2018-06-05T10:23:26.355Z,30.20
2018-06-05T10:25:53.907Z,30.50
2018-06-05T10:28:21.455Z,30.90
2018-06-05T10:30:49.065Z,31.20
2018-06-05T10:33:16.581Z,31.50
2018-06-05T10:35:44.133Z,31.80
2018-06-05T10:38:11.648Z,32.30
2018-06-05T10:40:39.195Z,32.60
2018-06-05T10:43:06.745Z,32.70
2018-06-05T10:45:34.309Z,32.70
2018-06-05T10:48:01.846Z,32.80
2018-06-05T10:50:29.409Z,33.00
2018-06-05T10:52:56.930Z,33.00
2018-06-05T10:55:24.476Z,33.10
2018-06-05T10:57:51.999Z,33.20
2018-06-05T11:00:19.562Z,33.40
2018-06-05T11:02:47.049Z,33.40
2018-06-05T11:05:14.595Z,33.40
2018-06-05T11:07:42.094Z,33.40
2018-06-05T11:10:09.651Z,33.30
2018-06-05T11:12:37.191Z,33.40
2018-06-05T11:15:04.725Z,33.50
2018-06-05T11:17:32.414Z,33.70
2018-06-05T11:20:00.001Z,33.80
2018-06-05T11:22:27.505Z,33.90
2018-06-05T11:24:55.018Z,33.90
2018-06-05T11:27:22.589Z,34.00
2018-06-05T11:29:50.145Z,34.00
2018-06-05T11:32:17.662Z,34.10
2018-06-05T11:34:45.247Z,34.40
2018-06-05T11:37:12.782Z,34.40
2018-06-05T11:39:40.285Z,34.60
2018-06-05T11:42:07.850Z,34.80
2018-06-05T11:44:35.366Z,34.90
2018-06-05T11:47:02.892Z,35.10
2018-06-05T11:49:30.395Z,35.10
2018-06-05T11:51:57.954Z,35.10
2018-06-05T11:54:25.578Z,35.30
2018-06-05T11:56:53.095Z,35.30
2018-06-05T11:59:20.601Z,35.40
2018-06-05T12:01:48.221Z,35.50
2018-06-05T12:04:15.773Z,35.70
2018-06-05T12:06:43.304Z,36.00
2018-06-05T12:09:10.980Z,36.10
2018-06-05T12:11:38.507Z,36.20
2018-06-05T12:14:06.034Z,36.20
2018-06-05T12:16:33.579Z,36.00
2018-06-05T12:19:01.117Z,36.10
2018-06-05T12:21:28.641Z,36.40
2018-06-05T12:23:56.153Z,36.80
2018-06-05T12:26:23.692Z,36.80
2018-06-05T12:28:51.259Z,37.00
2018-06-05T12:31:18.777Z,37.10
2018-06-05T12:33:46.319Z,37.00
2018-06-05T12:36:13.841Z,37.00
2018-06-05T12:38:41.449Z,37.00
2018-06-05T12:41:08.991Z,36.30
2018-06-05T12:43:36.525Z,35.30
2018-06-05T12:46:04.092Z,35.10
2018-06-05T12:48:31.637Z,35.30
2018-06-05T12:50:59.161Z,35.40
2018-06-05T12:53:26.731Z,35.10
2018-06-05T12:55:54.285Z,34.70
2018-06-05T12:58:21.796Z,34.80
2018-06-05T13:00:49.324Z,35.10
2018-06-05T13:03:16.872Z,35.40
2018-06-05T13:05:44.441Z,35.60
2018-06-05T13:08:11.980Z,35.90
2018-06-05T13:10:39.540Z,36.30
2018-06-05T13:13:07.089Z,36.70
2018-06-05T13:15:34.647Z,36.50
2018-06-05T13:18:02.185Z,36.30
2018-06-05T13:20:29.740Z,36.40
2018-06-05T13:22:57.393Z,36.60
2018-06-05T13:25:24.824Z,36.60
2018-06-05T13:27:52.316Z,36.60
2018-06-05T13:30:19.856Z,36.70
2018-06-05T13:32:47.402Z,36.70
2018-06-05T13:35:14.912Z,36.20
2018-06-05T13:37:42.412Z,35.40
2018-06-05T13:40:09.948Z,34.60
2018-06-05T13:42:37.488Z,34.10
2018-06-05T13:45:05.003Z,34.20
2018-06-05T13:47:32.531Z,34.60
2018-06-05T13:50:00.092Z,35.00
2018-06-05T13:52:27.684Z,35.40
2018-06-05T13:54:55.194Z,35.80
2018-06-05T13:57:22.728Z,36.20
2018-06-05T13:59:50.305Z,36.50
2018-06-05T14:02:17.864Z,36.70
2018-06-05T14:04:45.514Z,37.20
2018-06-05T14:07:13.032Z,37.40
2018-06-05T14:09:40.573Z,37.50
2018-06-05T14:12:08.930Z,37.60
2018-06-05T14:14:36.458Z,37.50
2018-06-05T14:17:04.166Z,37.40
2018-06-05T14:19:31.747Z,36.80
2018-06-05T14:21:59.258Z,35.90
2018-06-05T14:24:26.827Z,34.80
2018-06-05T14:26:54.382Z,34.00
2018-06-05T14:29:21.916Z,33.60
2018-06-05T14:31:49.461Z,34.10
2018-06-05T14:34:16.991Z,34.60
2018-06-05T14:36:44.536Z,35.30
2018-06-05T14:39:12.162Z,35.90
2018-06-05T14:41:39.696Z,36.10
2018-06-05T14:44:07.264Z,36.30
2018-06-05T14:46:34.847Z,36.50
2018-06-05T14:49:02.368Z,36.70
2018-06-05T14:51:29.918Z,36.80
2018-06-05T14:53:57.458Z,37.00
2018-06-05T14:56:24.999Z,37.20
2018-06-05T14:58:52.560Z,37.40
2018-06-05T15:01:20.109Z,37.60
2018-06-05T15:03:47.606Z,37.90
2018-06-05T15:06:15.121Z,38.00
2018-06-05T15:08:42.691Z,38.10
2018-06-05T15:11:10.232Z,38.10
2018-06-05T15:13:37.727Z,37.90
2018-06-05T15:16:05.334Z,37.90
2018-06-05T15:18:32.863Z,37.70
2018-06-05T15:21:00.394Z,37.50
2018-06-05T15:23:27.956Z,37.20
2018-06-05T15:25:55.462Z,37.00
2018-06-05T15:28:22.992Z,36.90
2018-06-05T15:30:50.520Z,36.40
2018-06-05T15:33:18.107Z,35.90
2018-06-05T15:35:45.631Z,35.70
2018-06-05T15:38:13.183Z,35.90
2018-06-05T15:40:40.701Z,36.30
2018-06-05T15:43:08.258Z,36.50
2018-06-05T15:45:35.859Z,36.50
2018-06-05T15:48:03.413Z,36.50
2018-06-05T15:50:30.962Z,36.60
2018-06-05T15:52:58.478Z,36.70
2018-06-05T15:55:26.093Z,36.70
2018-06-05T15:57:53.596Z,36.50
2018-06-05T16:00:21.128Z,36.10
2018-06-05T16:02:48.687Z,35.90
2018-06-05T16:05:16.236Z,35.80
2018-06-05T16:07:43.842Z,35.80
2018-06-05T16:10:11.410Z,35.80
2018-06-05T16:12:38.964Z,35.50
2018-06-05T16:15:06.583Z,35.30
2018-06-05T16:17:34.122Z,35.30
2018-06-05T16:22:29.434Z,35.30
2018-06-05T16:24:57.014Z,35.40
2018-06-05T16:27:24.578Z,35.60
2018-06-05T16:29:52.150Z,35.70
2018-06-05T16:32:19.680Z,35.60
2018-06-05T16:34:47.192Z,35.50
2018-06-05T16:37:14.757Z,35.40
2018-06-05T16:39:42.276Z,35.30
2018-06-05T16:42:09.845Z,35.10
2018-06-05T16:44:37.499Z,35.10
2018-06-05T16:47:05.061Z,35.00
2018-06-05T16:49:32.620Z,34.80
2018-06-05T16:52:00.208Z,34.50
2018-06-05T16:54:27.772Z,34.40
2018-06-05T16:56:55.324Z,34.20
2018-06-05T16:59:22.930Z,34.20
2018-06-05T17:01:50.435Z,34.10
2018-06-05T17:04:18.058Z,33.90
2018-06-05T17:06:45.577Z,33.70
2018-06-05T17:09:13.146Z,33.60
2018-06-05T17:11:40.666Z,33.40
2018-06-05T17:14:08.249Z,33.20
2018-06-05T17:16:35.805Z,33.10
2018-06-05T17:19:03.354Z,32.90
2018-06-05T17:21:30.944Z,32.80
2018-06-05T17:23:58.515Z,32.60
2018-06-05T17:26:26.098Z,32.30
2018-06-05T17:28:53.680Z,31.90
2018-06-05T17:31:21.214Z,31.60
2018-06-05T17:33:48.791Z,31.40
2018-06-05T17:36:16.379Z,31.10
2018-06-05T17:38:43.935Z,31.00
2018-06-05T17:41:11.468Z,30.80
2018-06-05T17:43:39.020Z,30.80
2018-06-05T17:46:06.588Z,30.50
2018-06-05T17:48:34.130Z,30.30
2018-06-05T17:51:01.721Z,30.00
2018-06-05T17:53:29.257Z,29.80
2018-06-05T17:55:56.805Z,29.60
2018-06-05T17:58:24.375Z,29.50
2018-06-05T18:00:51.935Z,29.40
2018-06-05T18:03:19.482Z,29.30
2018-06-05T18:05:47.080Z,29.20
2018-06-05T18:08:14.666Z,29.10
2018-06-05T18:10:42.250Z,29.00
2018-06-05T18:13:09.852Z,28.80
2018-06-05T18:15:37.468Z,28.70
2018-06-05T18:18:05.067Z,28.50
2018-06-05T18:20:32.664Z,28.30
2018-06-05T18:23:00.224Z,28.10
2018-06-05T18:25:27.797Z,28.00
2018-06-05T18:27:55.353Z,27.90
2018-06-05T18:30:22.926Z,27.80
2018-06-05T18:32:50.476Z,27.60
2018-06-05T18:35:18.055Z,27.50
2018-06-05T18:37:45.669Z,27.30
2018-06-05T18:40:13.210Z,27.00
2018-06-05T18:42:40.865Z,26.80
2018-06-05T18:45:08.551Z,26.70
2018-06-05T18:47:36.135Z,26.50
2018-06-05T18:50:03.818Z,26.40
2018-06-05T18:52:31.461Z,26.20
2018-06-05T18:54:59.058Z,26.10
2018-06-05T18:57:26.771Z,26.00
2018-06-05T18:59:54.429Z,25.90
2018-06-05T19:02:22.073Z,25.80
2018-06-05T19:04:50.608Z,25.70
2018-06-05T19:07:18.163Z,25.50
2018-06-05T19:09:45.812Z,25.50
2018-06-05T19:12:13.456Z,25.40
2018-06-05T19:14:41.345Z,25.20
2018-06-05T19:17:08.980Z,25.20
2018-06-05T19:19:36.569Z,25.00
2018-06-05T19:22:04.414Z,24.90
2018-06-05T19:24:32.091Z,24.80
2018-06-05T19:26:59.774Z,24.80
2018-06-05T19:29:27.415Z,24.60
2018-06-05T19:31:55.190Z,24.50
2018-06-05T19:34:22.936Z,24.40
2018-06-05T19:36:50.566Z,24.30
2018-06-05T19:39:18.244Z,24.10
2018-06-05T19:41:45.900Z,24.00
2018-06-05T19:44:13.515Z,23.80
2018-06-05T19:46:41.214Z,23.70
2018-06-05T19:49:08.806Z,23.50
2018-06-05T19:51:36.385Z,23.40
2018-06-05T19:54:04.042Z,23.30
2018-06-05T19:56:31.688Z,23.10
2018-06-05T19:58:59.318Z,23.00
2018-06-05T20:01:26.990Z,22.90
2018-06-05T20:03:54.637Z,22.70
2018-06-05T20:06:22.226Z,22.70
2018-06-05T20:08:49.894Z,22.60
2018-06-05T20:11:17.708Z,22.50
2018-06-05T20:13:45.343Z,22.40
2018-06-05T20:16:12.981Z,22.30
2018-06-05T20:18:40.688Z,22.20
2018-06-05T20:21:08.345Z,22.10
2018-06-05T20:23:35.965Z,22.00
2018-06-05T20:26:03.606Z,21.90
2018-06-05T20:28:31.243Z,21.90
2018-06-05T20:30:58.792Z,21.80
2018-06-05T20:33:26.568Z,21.70
2018-06-05T20:35:54.177Z,21.60
2018-06-05T20:38:21.718Z,21.50
2018-06-05T20:40:49.278Z,21.50
2018-06-05T20:43:16.818Z,21.40
2018-06-05T20:45:44.402Z,21.30
2018-06-05T20:48:11.962Z,21.20
2018-06-05T20:50:39.508Z,21.20
2018-06-05T20:55:34.566Z,21.00
2018-06-05T20:58:02.124Z,21.00
2018-06-05T21:00:29.728Z,20.90
2018-06-05T21:02:57.319Z,20.90
2018-06-05T21:05:24.873Z,20.80
2018-06-05T21:07:52.395Z,20.70
2018-06-05T21:10:20.008Z,20.70
2018-06-05T21:12:47.557Z,20.60
2018-06-05T21:15:15.098Z,20.50
2018-06-05T21:17:42.755Z,20.40
2018-06-05T21:20:10.348Z,20.40
2018-06-05T21:22:38.024Z,20.40
2018-06-05T21:25:05.567Z,20.40
2018-06-05T21:27:33.105Z,20.30
2018-06-05T21:30:00.655Z,20.30
2018-06-05T21:32:28.195Z,20.20
2018-06-05T21:34:55.731Z,20.10
2018-06-05T21:37:23.296Z,20.10
2018-06-05T21:39:50.841Z,20.10
2018-06-05T21:42:18.373Z,20.00
2018-06-05T21:44:45.954Z,20.00
2018-06-05T21:47:13.503Z,19.90
2018-06-05T21:49:41.041Z,19.90
2018-06-05T21:52:08.590Z,19.80
2018-06-05T21:54:36.227Z,19.80
2018-06-05T21:57:03.825Z,19.70
2018-06-05T21:59:31.342Z,19.70
2018-06-05T22:01:58.995Z,19.60
2018-06-05T22:04:26.586Z,19.60
2018-06-05T22:06:54.155Z,19.50
2018-06-05T22:09:21.725Z,19.50
2018-06-05T22:11:49.259Z,19.40
2018-06-05T22:14:16.795Z,19.40
2018-06-05T22:16:44.323Z,19.30
2018-06-05T22:19:11.867Z,19.20
2018-06-05T22:21:39.397Z,19.20
2018-06-05T22:24:07.394Z,19.20
2018-06-05T22:26:34.915Z,19.10
2018-06-05T22:29:02.467Z,19.10
2018-06-05T22:31:30.026Z,19.10
2018-06-05T22:33:57.551Z,19.10
2018-06-05T22:36:25.387Z,19.10
2018-06-05T22:38:52.929Z,19.10
2018-06-05T22:41:20.447Z,19.10
2018-06-05T22:43:47.980Z,19.20
2018-06-05T22:46:15.573Z,19.20
2018-06-05T22:48:43.100Z,19.30
2018-06-05T22:51:10.662Z,19.30
2018-06-05T22:53:38.200Z,19.30
2018-06-05T22:56:05.699Z,19.40
2018-06-05T22:58:33.280Z,19.40
2018-06-05T23:01:00.802Z,19.50
2018-06-05T23:03:28.312Z,19.60
2018-06-05T23:05:55.845Z,19.70
2018-06-05T23:08:23.388Z,19.70
2018-06-05T23:10:50.936Z,19.70
2018-06-05T23:13:18.468Z,19.70
2018-06-05T23:15:46.002Z,19.60
2018-06-05T23:18:13.506Z,19.60
2018-06-05T23:20:41.026Z,19.50
2018-06-05T23:23:08.578Z,19.50
2018-06-05T23:25:36.150Z,19.40
2018-06-05T23:28:03.776Z,19.40
2018-06-05T23:30:31.366Z,19.40
2018-06-05T23:32:58.888Z,19.30
2018-06-05T23:35:26.423Z,19.30
2018-06-05T23:37:53.956Z,19.30
2018-06-05T23:40:21.460Z,19.30
2018-06-05T23:42:49.010Z,19.40
2018-06-05T23:45:16.583Z,19.40
2018-06-05T23:47:44.123Z,19.40
2018-06-05T23:50:11.665Z,19.40
2018-06-05T23:52:39.212Z,19.30
2018-06-05T23:55:06.738Z,19.20
2018-06-05T23:57:34.247Z,19.10
